sensor_id;sensor_type;location;lat;lon;timestamp;P1;durP1;ratioP1;P2;durP2;ratioP2
15679;SDS011;15488;48.114;11.532;2023-02-14T00:01:17;11.30;;;7.27;;
15679;SDS011;15488;48.114;11.532;2023-02-14T00:03:45;16.20;;;9.63;;
15679;SDS011;15488;48.114;11.532;2023-02-14T00:06:13;13.67;;;8.47;;
15679;SDS011;15488;48.114;11.532;2023-02-14T00:08:41;13.10;;;8.33;;
15679;SDS011;15488;48.114;11.532;2023-02-14T00:11:11;12.90;;;8.30;;
15679;SDS011;15488;48.114;11.532;2023-02-14T00:13:38;13.00;;;8.37;;
15679;SDS011;15488;48.114;11.532;2023-02-14T00:16:27;11.90;;;7.50;;
15679;SDS011;15488;48.114;11.532;2023-02-14T00:18:53;11.63;;;7.57;;
15679;SDS011;15488;48.114;11.532;2023-02-14T00:21:29;11.13;;;7.23;;
15679;SDS011;15488;48.114;11.532;2023-02-14T00:23:59;12.33;;;7.10;;
15679;SDS011;15488;48.114;11.532;2023-02-14T00:26:28;10.10;;;6.60;;
15679;SDS011;15488;48.114;11.532;2023-02-14T00:28:56;11.53;;;6.93;;
15679;SDS011;15488;48.114;11.532;2023-02-14T00:31:23;17.80;;;10.57;;
15679;SDS011;15488;48.114;11.532;2023-02-14T00:33:51;15.77;;;9.90;;
15679;SDS011;15488;48.114;11.532;2023-02-14T00:36:19;15.10;;;8.87;;
15679;SDS011;15488;48.114;11.532;2023-02-14T00:38:47;16.93;;;9.77;;
15679;SDS011;15488;48.114;11.532;2023-02-14T00:41:15;22.87;;;12.43;;
15679;SDS011;15488;48.114;11.532;2023-02-14T00:43:46;18.10;;;10.40;;
15679;SDS011;15488;48.114;11.532;2023-02-14T00:46:14;12.63;;;8.00;;
15679;SDS011;15488;48.114;11.532;2023-02-14T00:48:44;11.77;;;7.87;;
15679;SDS011;15488;48.114;11.532;2023-02-14T00:51:12;9.87;;;6.97;;
15679;SDS011;15488;48.114;11.532;2023-02-14T00:53:40;9.80;;;6.67;;
15679;SDS011;15488;48.114;11.532;2023-02-14T00:56:07;11.53;;;7.43;;
15679;SDS011;15488;48.114;11.532;2023-02-14T00:58:34;10.37;;;7.17;;
15679;SDS011;15488;48.114;11.532;2023-02-14T01:01:03;11.23;;;7.53;;
15679;SDS011;15488;48.114;11.532;2023-02-14T01:03:31;12.73;;;8.17;;
15679;SDS011;15488;48.114;11.532;2023-02-14T01:05:59;11.70;;;7.93;;
15679;SDS011;15488;48.114;11.532;2023-02-14T01:08:26;14.00;;;8.63;;
15679;SDS011;15488;48.114;11.532;2023-02-14T01:10:54;10.20;;;6.93;;
15679;SDS011;15488;48.114;11.532;2023-02-14T01:13:21;11.10;;;7.70;;
15679;SDS011;15488;48.114;11.532;2023-02-14T01:15:49;11.10;;;7.23;;
15679;SDS011;15488;48.114;11.532;2023-02-14T01:18:18;10.73;;;7.00;;
15679;SDS011;15488;48.114;11.532;2023-02-14T01:20:46;9.90;;;7.07;;
15679;SDS011;15488;48.114;11.532;2023-02-14T01:23:13;10.33;;;6.43;;
15679;SDS011;15488;48.114;11.532;2023-02-14T01:25:41;10.13;;;6.77;;
15679;SDS011;15488;48.114;11.532;2023-02-14T01:28:08;10.40;;;7.00;;
15679;SDS011;15488;48.114;11.532;2023-02-14T01:30:35;11.27;;;7.40;;
15679;SDS011;15488;48.114;11.532;2023-02-14T01:33:03;10.23;;;7.03;;
15679;SDS011;15488;48.114;11.532;2023-02-14T01:35:32;11.07;;;6.97;;
15679;SDS011;15488;48.114;11.532;2023-02-14T01:38:03;11.07;;;7.57;;
15679;SDS011;15488;48.114;11.532;2023-02-14T01:40:30;10.87;;;6.83;;
15679;SDS011;15488;48.114;11.532;2023-02-14T01:42:58;9.67;;;6.67;;
15679;SDS011;15488;48.114;11.532;2023-02-14T01:45:25;8.87;;;6.57;;
15679;SDS011;15488;48.114;11.532;2023-02-14T01:47:54;10.23;;;6.53;;
15679;SDS011;15488;48.114;11.532;2023-02-14T01:50:23;10.67;;;7.00;;
15679;SDS011;15488;48.114;11.532;2023-02-14T01:52:56;10.83;;;6.93;;
15679;SDS011;15488;48.114;11.532;2023-02-14T01:55:28;11.23;;;7.17;;
15679;SDS011;15488;48.114;11.532;2023-02-14T01:57:58;11.33;;;7.27;;
15679;SDS011;15488;48.114;11.532;2023-02-14T02:00:28;9.67;;;6.50;;
15679;SDS011;15488;48.114;11.532;2023-02-14T02:03:15;9.33;;;6.67;;
15679;SDS011;15488;48.114;11.532;2023-02-14T02:05:45;9.80;;;6.77;;
15679;SDS011;15488;48.114;11.532;2023-02-14T02:08:16;9.80;;;6.73;;
15679;SDS011;15488;48.114;11.532;2023-02-14T02:10:43;8.93;;;6.57;;
15679;SDS011;15488;48.114;11.532;2023-02-14T02:13:13;10.13;;;6.80;;
15679;SDS011;15488;48.114;11.532;2023-02-14T02:15:45;10.03;;;6.50;;
15679;SDS011;15488;48.114;11.532;2023-02-14T02:18:22;9.63;;;6.63;;
15679;SDS011;15488;48.114;11.532;2023-02-14T02:21:14;9.00;;;6.77;;
15679;SDS011;15488;48.114;11.532;2023-02-14T02:30:14;9.77;;;6.43;;
15679;SDS011;15488;48.114;11.532;2023-02-14T02:39:17;10.23;;;6.90;;
15679;SDS011;15488;48.114;11.532;2023-02-14T02:41:56;9.73;;;6.67;;
15679;SDS011;15488;48.114;11.532;2023-02-14T02:44:33;9.93;;;6.60;;
15679;SDS011;15488;48.114;11.532;2023-02-14T02:47:13;11.30;;;7.30;;
15679;SDS011;15488;48.114;11.532;2023-02-14T02:49:44;10.60;;;6.80;;
15679;SDS011;15488;48.114;11.532;2023-02-14T02:52:41;9.87;;;6.67;;
15679;SDS011;15488;48.114;11.532;2023-02-14T02:55:32;10.97;;;7.10;;
15679;SDS011;15488;48.114;11.532;2023-02-14T02:58:25;10.13;;;6.57;;
15679;SDS011;15488;48.114;11.532;2023-02-14T03:00:56;9.80;;;6.67;;
15679;SDS011;15488;48.114;11.532;2023-02-14T03:03:26;10.20;;;6.43;;
15679;SDS011;15488;48.114;11.532;2023-02-14T03:06:13;9.40;;;6.23;;
15679;SDS011;15488;48.114;11.532;2023-02-14T03:08:42;10.40;;;6.80;;
15679;SDS011;15488;48.114;11.532;2023-02-14T03:11:10;11.97;;;6.90;;
15679;SDS011;15488;48.114;11.532;2023-02-14T03:16:32;9.20;;;6.40;;
15679;SDS011;15488;48.114;11.532;2023-02-14T03:19:11;9.77;;;6.70;;
15679;SDS011;15488;48.114;11.532;2023-02-14T03:22:17;9.70;;;6.43;;
15679;SDS011;15488;48.114;11.532;2023-02-14T03:24:56;10.10;;;6.50;;
15679;SDS011;15488;48.114;11.532;2023-02-14T03:27:31;10.53;;;6.83;;
15679;SDS011;15488;48.114;11.532;2023-02-14T03:30:06;10.00;;;7.10;;
15679;SDS011;15488;48.114;11.532;2023-02-14T03:32:40;9.10;;;6.37;;
15679;SDS011;15488;48.114;11.532;2023-02-14T03:35:11;10.17;;;6.73;;
15679;SDS011;15488;48.114;11.532;2023-02-14T03:37:46;9.97;;;6.47;;
15679;SDS011;15488;48.114;11.532;2023-02-14T03:40:21;10.73;;;7.10;;
15679;SDS011;15488;48.114;11.532;2023-02-14T03:42:52;9.87;;;6.40;;
15679;SDS011;15488;48.114;11.532;2023-02-14T03:45:25;10.77;;;6.87;;
15679;SDS011;15488;48.114;11.532;2023-02-14T03:47:55;10.27;;;6.83;;
15679;SDS011;15488;48.114;11.532;2023-02-14T03:50:28;8.87;;;6.30;;
15679;SDS011;15488;48.114;11.532;2023-02-14T03:52:58;11.23;;;6.93;;
15679;SDS011;15488;48.114;11.532;2023-02-14T03:55:29;9.17;;;6.33;;
15679;SDS011;15488;48.114;11.532;2023-02-14T03:58:02;9.60;;;6.67;;
15679;SDS011;15488;48.114;11.532;2023-02-14T04:00:34;9.67;;;6.33;;
15679;SDS011;15488;48.114;11.532;2023-02-14T04:03:05;8.87;;;6.30;;
15679;SDS011;15488;48.114;11.532;2023-02-14T04:05:37;9.30;;;6.20;;
15679;SDS011;15488;48.114;11.532;2023-02-14T04:08:07;9.00;;;6.20;;
15679;SDS011;15488;48.114;11.532;2023-02-14T04:10:37;7.77;;;5.70;;
15679;SDS011;15488;48.114;11.532;2023-02-14T04:13:07;8.33;;;5.97;;
15679;SDS011;15488;48.114;11.532;2023-02-14T04:15:34;9.17;;;5.73;;
15679;SDS011;15488;48.114;11.532;2023-02-14T04:18:02;8.47;;;5.60;;
15679;SDS011;15488;48.114;11.532;2023-02-14T04:20:46;8.97;;;5.93;;
15679;SDS011;15488;48.114;11.532;2023-02-14T04:23:14;7.87;;;5.73;;
15679;SDS011;15488;48.114;11.532;2023-02-14T04:25:43;8.63;;;6.10;;
15679;SDS011;15488;48.114;11.532;2023-02-14T04:28:11;9.57;;;6.47;;
15679;SDS011;15488;48.114;11.532;2023-02-14T04:30:39;7.87;;;5.67;;
15679;SDS011;15488;48.114;11.532;2023-02-14T04:33:06;9.17;;;6.40;;
15679;SDS011;15488;48.114;11.532;2023-02-14T04:35:34;9.13;;;6.27;;
15679;SDS011;15488;48.114;11.532;2023-02-14T04:38:02;8.47;;;5.93;;
15679;SDS011;15488;48.114;11.532;2023-02-14T04:40:30;8.63;;;6.03;;
15679;SDS011;15488;48.114;11.532;2023-02-14T04:42:59;8.83;;;6.50;;
15679;SDS011;15488;48.114;11.532;2023-02-14T04:45:28;9.40;;;6.50;;
15679;SDS011;15488;48.114;11.532;2023-02-14T04:47:56;8.53;;;6.03;;
15679;SDS011;15488;48.114;11.532;2023-02-14T04:50:23;10.03;;;5.97;;
15679;SDS011;15488;48.114;11.532;2023-02-14T04:52:50;8.87;;;6.10;;
15679;SDS011;15488;48.114;11.532;2023-02-14T04:55:18;8.87;;;6.30;;
15679;SDS011;15488;48.114;11.532;2023-02-14T04:57:45;9.17;;;6.07;;
15679;SDS011;15488;48.114;11.532;2023-02-14T05:00:15;8.53;;;6.23;;
15679;SDS011;15488;48.114;11.532;2023-02-14T05:02:43;9.97;;;6.60;;
15679;SDS011;15488;48.114;11.532;2023-02-14T05:05:11;9.97;;;6.50;;
15679;SDS011;15488;48.114;11.532;2023-02-14T05:07:38;9.90;;;6.80;;
15679;SDS011;15488;48.114;11.532;2023-02-14T05:10:06;9.37;;;6.20;;
15679;SDS011;15488;48.114;11.532;2023-02-14T05:12:35;9.27;;;6.47;;
15679;SDS011;15488;48.114;11.532;2023-02-14T05:15:02;8.80;;;6.20;;
15679;SDS011;15488;48.114;11.532;2023-02-14T05:17:31;9.03;;;6.27;;
15679;SDS011;15488;48.114;11.532;2023-02-14T05:20:00;10.57;;;6.87;;
15679;SDS011;15488;48.114;11.532;2023-02-14T05:22:28;8.27;;;6.07;;
15679;SDS011;15488;48.114;11.532;2023-02-14T05:24:55;9.80;;;6.43;;
15679;SDS011;15488;48.114;11.532;2023-02-14T05:27:23;10.57;;;6.67;;
15679;SDS011;15488;48.114;11.532;2023-02-14T05:29:50;10.20;;;6.80;;
15679;SDS011;15488;48.114;11.532;2023-02-14T05:32:17;9.03;;;6.53;;
15679;SDS011;15488;48.114;11.532;2023-02-14T05:34:46;9.50;;;6.40;;
15679;SDS011;15488;48.114;11.532;2023-02-14T05:37:14;10.07;;;6.70;;
15679;SDS011;15488;48.114;11.532;2023-02-14T05:39:41;10.10;;;6.83;;
15679;SDS011;15488;48.114;11.532;2023-02-14T05:42:09;9.70;;;6.27;;
15679;SDS011;15488;48.114;11.532;2023-02-14T05:44:36;9.27;;;6.07;;
15679;SDS011;15488;48.114;11.532;2023-02-14T05:47:03;10.57;;;6.63;;
15679;SDS011;15488;48.114;11.532;2023-02-14T05:49:31;9.27;;;6.43;;
15679;SDS011;15488;48.114;11.532;2023-02-14T05:52:01;10.23;;;6.00;;
15679;SDS011;15488;48.114;11.532;2023-02-14T05:54:28;9.27;;;6.43;;
15679;SDS011;15488;48.114;11.532;2023-02-14T05:56:55;10.13;;;6.30;;
15679;SDS011;15488;48.114;11.532;2023-02-14T05:59:23;10.40;;;6.60;;
15679;SDS011;15488;48.114;11.532;2023-02-14T06:01:50;7.90;;;5.53;;
15679;SDS011;15488;48.114;11.532;2023-02-14T06:04:18;8.60;;;5.87;;
15679;SDS011;15488;48.114;11.532;2023-02-14T06:06:45;9.70;;;6.37;;
15679;SDS011;15488;48.114;11.532;2023-02-14T06:09:14;10.33;;;6.70;;
15679;SDS011;15488;48.114;11.532;2023-02-14T06:11:42;9.90;;;6.13;;
15679;SDS011;15488;48.114;11.532;2023-02-14T06:14:10;8.77;;;6.13;;
15679;SDS011;15488;48.114;11.532;2023-02-14T06:16:37;10.40;;;6.37;;
15679;SDS011;15488;48.114;11.532;2023-02-14T06:19:04;8.97;;;5.93;;
15679;SDS011;15488;48.114;11.532;2023-02-14T06:21:33;8.40;;;5.87;;
15679;SDS011;15488;48.114;11.532;2023-02-14T06:24:01;8.70;;;5.80;;
15679;SDS011;15488;48.114;11.532;2023-02-14T06:26:30;8.60;;;6.50;;
15679;SDS011;15488;48.114;11.532;2023-02-14T06:29:00;9.30;;;6.10;;
15679;SDS011;15488;48.114;11.532;2023-02-14T06:31:28;8.60;;;5.80;;
15679;SDS011;15488;48.114;11.532;2023-02-14T06:33:56;8.63;;;5.83;;
15679;SDS011;15488;48.114;11.532;2023-02-14T06:36:23;7.63;;;5.70;;
15679;SDS011;15488;48.114;11.532;2023-02-14T06:38:51;8.93;;;5.90;;
15679;SDS011;15488;48.114;11.532;2023-02-14T06:41:19;9.30;;;6.03;;
15679;SDS011;15488;48.114;11.532;2023-02-14T06:43:47;8.77;;;5.80;;
15679;SDS011;15488;48.114;11.532;2023-02-14T06:46:15;9.10;;;6.23;;
15679;SDS011;15488;48.114;11.532;2023-02-14T06:48:43;9.07;;;6.23;;
15679;SDS011;15488;48.114;11.532;2023-02-14T06:51:11;9.90;;;6.20;;
15679;SDS011;15488;48.114;11.532;2023-02-14T06:53:38;10.10;;;6.47;;
15679;SDS011;15488;48.114;11.532;2023-02-14T06:56:06;10.80;;;7.10;;
15679;SDS011;15488;48.114;11.532;2023-02-14T06:58:34;10.63;;;6.83;;
15679;SDS011;15488;48.114;11.532;2023-02-14T07:01:03;9.97;;;6.60;;
15679;SDS011;15488;48.114;11.532;2023-02-14T07:03:30;9.63;;;6.23;;
15679;SDS011;15488;48.114;11.532;2023-02-14T07:05:58;9.67;;;6.27;;
15679;SDS011;15488;48.114;11.532;2023-02-14T07:08:25;11.37;;;6.50;;
15679;SDS011;15488;48.114;11.532;2023-02-14T07:10:54;9.00;;;6.07;;
15679;SDS011;15488;48.114;11.532;2023-02-14T07:13:22;8.20;;;5.93;;
15679;SDS011;15488;48.114;11.532;2023-02-14T07:15:49;9.03;;;5.67;;
15679;SDS011;15488;48.114;11.532;2023-02-14T07:18:18;9.00;;;6.33;;
15679;SDS011;15488;48.114;11.532;2023-02-14T07:20:46;8.33;;;5.43;;
15679;SDS011;15488;48.114;11.532;2023-02-14T07:23:14;8.10;;;5.47;;
15679;SDS011;15488;48.114;11.532;2023-02-14T07:25:41;7.57;;;5.43;;
15679;SDS011;15488;48.114;11.532;2023-02-14T07:28:09;8.67;;;5.87;;
15679;SDS011;15488;48.114;11.532;2023-02-14T07:30:36;9.07;;;5.93;;
15679;SDS011;15488;48.114;11.532;2023-02-14T07:33:04;7.47;;;5.30;;
15679;SDS011;15488;48.114;11.532;2023-02-14T07:35:33;7.40;;;5.20;;
15679;SDS011;15488;48.114;11.532;2023-02-14T07:38:00;8.47;;;5.83;;
15679;SDS011;15488;48.114;11.532;2023-02-14T07:40:28;8.93;;;5.83;;
15679;SDS011;15488;48.114;11.532;2023-02-14T07:42:56;9.20;;;6.03;;
15679;SDS011;15488;48.114;11.532;2023-02-14T07:45:25;7.90;;;5.60;;
15679;SDS011;15488;48.114;11.532;2023-02-14T07:47:53;7.50;;;5.33;;
15679;SDS011;15488;48.114;11.532;2023-02-14T07:50:23;8.27;;;5.33;;
15679;SDS011;15488;48.114;11.532;2023-02-14T07:52:52;10.70;;;7.00;;
15679;SDS011;15488;48.114;11.532;2023-02-14T07:55:20;9.47;;;6.27;;
15679;SDS011;15488;48.114;11.532;2023-02-14T07:57:50;9.33;;;6.30;;
15679;SDS011;15488;48.114;11.532;2023-02-14T08:00:18;8.27;;;5.73;;
15679;SDS011;15488;48.114;11.532;2023-02-14T08:02:46;9.30;;;6.10;;
15679;SDS011;15488;48.114;11.532;2023-02-14T08:05:14;9.73;;;6.47;;
15679;SDS011;15488;48.114;11.532;2023-02-14T08:07:41;9.60;;;6.30;;
15679;SDS011;15488;48.114;11.532;2023-02-14T08:10:10;8.70;;;6.53;;
15679;SDS011;15488;48.114;11.532;2023-02-14T08:12:38;9.87;;;6.30;;
15679;SDS011;15488;48.114;11.532;2023-02-14T08:15:24;8.63;;;6.20;;
15679;SDS011;15488;48.114;11.532;2023-02-14T08:18:09;9.60;;;6.20;;
15679;SDS011;15488;48.114;11.532;2023-02-14T08:20:36;9.67;;;6.30;;
15679;SDS011;15488;48.114;11.532;2023-02-14T08:23:04;9.50;;;6.30;;
15679;SDS011;15488;48.114;11.532;2023-02-14T08:25:33;8.90;;;6.10;;
15679;SDS011;15488;48.114;11.532;2023-02-14T08:28:01;9.00;;;5.90;;
15679;SDS011;15488;48.114;11.532;2023-02-14T08:30:29;10.20;;;6.67;;
15679;SDS011;15488;48.114;11.532;2023-02-14T08:32:57;11.40;;;7.13;;
15679;SDS011;15488;48.114;11.532;2023-02-14T08:35:24;9.40;;;5.97;;
15679;SDS011;15488;48.114;11.532;2023-02-14T08:37:52;10.33;;;6.70;;
15679;SDS011;15488;48.114;11.532;2023-02-14T08:40:19;8.40;;;6.23;;
15679;SDS011;15488;48.114;11.532;2023-02-14T08:42:48;9.70;;;6.30;;
15679;SDS011;15488;48.114;11.532;2023-02-14T08:45:16;9.60;;;6.53;;
15679;SDS011;15488;48.114;11.532;2023-02-14T08:47:43;8.80;;;6.03;;
15679;SDS011;15488;48.114;11.532;2023-02-14T08:50:12;10.47;;;6.60;;
15679;SDS011;15488;48.114;11.532;2023-02-14T08:52:41;10.13;;;6.60;;
15679;SDS011;15488;48.114;11.532;2023-02-14T08:55:09;10.10;;;6.80;;
15679;SDS011;15488;48.114;11.532;2023-02-14T08:57:38;9.23;;;6.40;;
15679;SDS011;15488;48.114;11.532;2023-02-14T09:00:08;10.73;;;6.53;;
15679;SDS011;15488;48.114;11.532;2023-02-14T09:02:36;10.30;;;6.70;;
15679;SDS011;15488;48.114;11.532;2023-02-14T09:05:04;10.17;;;6.37;;
15679;SDS011;15488;48.114;11.532;2023-02-14T09:07:33;10.60;;;6.90;;
15679;SDS011;15488;48.114;11.532;2023-02-14T09:10:00;9.13;;;6.47;;
15679;SDS011;15488;48.114;11.532;2023-02-14T09:12:28;10.33;;;6.90;;
15679;SDS011;15488;48.114;11.532;2023-02-14T09:14:55;11.70;;;7.17;;
15679;SDS011;15488;48.114;11.532;2023-02-14T09:17:24;10.60;;;6.57;;
15679;SDS011;15488;48.114;11.532;2023-02-14T09:19:52;11.07;;;6.40;;
15679;SDS011;15488;48.114;11.532;2023-02-14T09:22:19;10.27;;;6.67;;
15679;SDS011;15488;48.114;11.532;2023-02-14T09:24:47;10.80;;;7.13;;
15679;SDS011;15488;48.114;11.532;2023-02-14T09:27:14;12.53;;;7.00;;
15679;SDS011;15488;48.114;11.532;2023-02-14T09:29:42;10.40;;;6.90;;
15679;SDS011;15488;48.114;11.532;2023-02-14T09:32:09;10.93;;;6.77;;
15679;SDS011;15488;48.114;11.532;2023-02-14T09:34:38;11.70;;;6.80;;
15679;SDS011;15488;48.114;11.532;2023-02-14T09:37:17;10.23;;;7.40;;
15679;SDS011;15488;48.114;11.532;2023-02-14T09:40:03;10.50;;;6.57;;
15679;SDS011;15488;48.114;11.532;2023-02-14T09:42:39;9.87;;;5.80;;
15679;SDS011;15488;48.114;11.532;2023-02-14T09:45:14;11.03;;;7.30;;
15679;SDS011;15488;48.114;11.532;2023-02-14T09:47:45;9.53;;;6.93;;
15679;SDS011;15488;48.114;11.532;2023-02-14T09:50:19;13.17;;;7.10;;
15679;SDS011;15488;48.114;11.532;2023-02-14T09:52:51;11.60;;;7.33;;
15679;SDS011;15488;48.114;11.532;2023-02-14T09:55:22;12.63;;;7.53;;
15679;SDS011;15488;48.114;11.532;2023-02-14T09:58:01;9.80;;;6.33;;
15679;SDS011;15488;48.114;11.532;2023-02-14T10:00:34;12.93;;;7.90;;
15679;SDS011;15488;48.114;11.532;2023-02-14T10:03:10;12.87;;;7.30;;
15679;SDS011;15488;48.114;11.532;2023-02-14T10:05:55;10.77;;;6.53;;
15679;SDS011;15488;48.114;11.532;2023-02-14T10:08:31;13.03;;;7.03;;
15679;SDS011;15488;48.114;11.532;2023-02-14T10:11:13;10.30;;;7.10;;
15679;SDS011;15488;48.114;11.532;2023-02-14T10:13:45;10.37;;;6.30;;
15679;SDS011;15488;48.114;11.532;2023-02-14T10:16:17;9.63;;;6.47;;
15679;SDS011;15488;48.114;11.532;2023-02-14T10:18:51;12.60;;;6.87;;
15679;SDS011;15488;48.114;11.532;2023-02-14T10:21:24;12.07;;;7.70;;
15679;SDS011;15488;48.114;11.532;2023-02-14T10:23:57;16.63;;;9.67;;
15679;SDS011;15488;48.114;11.532;2023-02-14T10:26:30;13.53;;;8.60;;
15679;SDS011;15488;48.114;11.532;2023-02-14T10:29:01;13.97;;;7.97;;
15679;SDS011;15488;48.114;11.532;2023-02-14T10:31:33;13.27;;;7.40;;
15679;SDS011;15488;48.114;11.532;2023-02-14T10:34:06;11.90;;;7.97;;
15679;SDS011;15488;48.114;11.532;2023-02-14T10:36:48;11.33;;;7.37;;
15679;SDS011;15488;48.114;11.532;2023-02-14T10:39:36;12.80;;;6.73;;
15679;SDS011;15488;48.114;11.532;2023-02-14T10:42:23;12.63;;;7.17;;
15679;SDS011;15488;48.114;11.532;2023-02-14T10:45:01;12.43;;;7.50;;
15679;SDS011;15488;48.114;11.532;2023-02-14T10:47:41;12.20;;;6.40;;
15679;SDS011;15488;48.114;11.532;2023-02-14T10:50:16;10.83;;;6.90;;
15679;SDS011;15488;48.114;11.532;2023-02-14T10:52:50;12.93;;;6.40;;
15679;SDS011;15488;48.114;11.532;2023-02-14T10:55:26;12.17;;;6.87;;
15679;SDS011;15488;48.114;11.532;2023-02-14T10:58:04;11.53;;;7.30;;
15679;SDS011;15488;48.114;11.532;2023-02-14T11:00:36;10.93;;;6.93;;
15679;SDS011;15488;48.114;11.532;2023-02-14T11:03:07;12.20;;;6.83;;
15679;SDS011;15488;48.114;11.532;2023-02-14T11:05:38;12.27;;;7.43;;
15679;SDS011;15488;48.114;11.532;2023-02-14T11:08:14;12.90;;;6.77;;
15679;SDS011;15488;48.114;11.532;2023-02-14T11:10:44;13.57;;;7.27;;
15679;SDS011;15488;48.114;11.532;2023-02-14T11:13:29;12.73;;;7.83;;
15679;SDS011;15488;48.114;11.532;2023-02-14T11:15:59;13.90;;;7.77;;
15679;SDS011;15488;48.114;11.532;2023-02-14T11:18:28;12.87;;;8.17;;
15679;SDS011;15488;48.114;11.532;2023-02-14T11:21:00;15.77;;;8.20;;
15679;SDS011;15488;48.114;11.532;2023-02-14T11:23:34;15.33;;;8.03;;
15679;SDS011;15488;48.114;11.532;2023-02-14T11:26:04;14.67;;;7.97;;
15679;SDS011;15488;48.114;11.532;2023-02-14T11:31:27;14.13;;;8.20;;
15679;SDS011;15488;48.114;11.532;2023-02-14T11:33:57;14.10;;;8.23;;
15679;SDS011;15488;48.114;11.532;2023-02-14T11:36:25;17.47;;;9.60;;
15679;SDS011;15488;48.114;11.532;2023-02-14T11:38:59;15.93;;;9.17;;
15679;SDS011;15488;48.114;11.532;2023-02-14T11:41:47;14.30;;;8.83;;
15679;SDS011;15488;48.114;11.532;2023-02-14T11:44:16;17.73;;;9.37;;
15679;SDS011;15488;48.114;11.532;2023-02-14T11:46:47;19.23;;;9.83;;
15679;SDS011;15488;48.114;11.532;2023-02-14T11:49:23;18.20;;;10.43;;
15679;SDS011;15488;48.114;11.532;2023-02-14T11:51:56;18.57;;;10.13;;
15679;SDS011;15488;48.114;11.532;2023-02-14T11:54:29;18.03;;;10.37;;
15679;SDS011;15488;48.114;11.532;2023-02-14T11:57:01;16.17;;;9.73;;
15679;SDS011;15488;48.114;11.532;2023-02-14T11:59:34;18.57;;;10.70;;
15679;SDS011;15488;48.114;11.532;2023-02-14T12:02:13;18.20;;;10.30;;
15679;SDS011;15488;48.114;11.532;2023-02-14T12:04:48;20.77;;;11.23;;
15679;SDS011;15488;48.114;11.532;2023-02-14T12:07:19;20.50;;;11.43;;
15679;SDS011;15488;48.114;11.532;2023-02-14T12:10:04;19.57;;;11.57;;
15679;SDS011;15488;48.114;11.532;2023-02-14T12:12:34;21.00;;;11.40;;
15679;SDS011;15488;48.114;11.532;2023-02-14T12:15:20;19.60;;;10.60;;
15679;SDS011;15488;48.114;11.532;2023-02-14T12:17:51;19.43;;;11.07;;
15679;SDS011;15488;48.114;11.532;2023-02-14T12:20:25;20.60;;;11.97;;
15679;SDS011;15488;48.114;11.532;2023-02-14T12:23:02;20.37;;;11.57;;
15679;SDS011;15488;48.114;11.532;2023-02-14T12:25:38;19.37;;;11.93;;
15679;SDS011;15488;48.114;11.532;2023-02-14T12:28:10;21.20;;;11.27;;
15679;SDS011;15488;48.114;11.532;2023-02-14T12:30:40;21.70;;;11.70;;
15679;SDS011;15488;48.114;11.532;2023-02-14T12:33:11;16.70;;;10.77;;
15679;SDS011;15488;48.114;11.532;2023-02-14T12:35:45;18.63;;;10.70;;
15679;SDS011;15488;48.114;11.532;2023-02-14T12:38:20;18.27;;;10.37;;
15679;SDS011;15488;48.114;11.532;2023-02-14T12:40:59;18.50;;;11.17;;
15679;SDS011;15488;48.114;11.532;2023-02-14T12:43:41;17.63;;;11.03;;
15679;SDS011;15488;48.114;11.532;2023-02-14T12:46:23;21.13;;;11.67;;
15679;SDS011;15488;48.114;11.532;2023-02-14T12:49:12;18.30;;;11.00;;
15679;SDS011;15488;48.114;11.532;2023-02-14T12:52:00;16.13;;;10.60;;
15679;SDS011;15488;48.114;11.532;2023-02-14T12:54:39;14.80;;;10.00;;
15679;SDS011;15488;48.114;11.532;2023-02-14T12:57:19;17.23;;;11.07;;
15679;SDS011;15488;48.114;11.532;2023-02-14T12:59:59;17.77;;;11.30;;
15679;SDS011;15488;48.114;11.532;2023-02-14T13:05:52;18.53;;;11.10;;
15679;SDS011;15488;48.114;11.532;2023-02-14T13:08:31;20.47;;;11.60;;
15679;SDS011;15488;48.114;11.532;2023-02-14T13:11:10;16.20;;;10.83;;
15679;SDS011;15488;48.114;11.532;2023-02-14T13:13:51;17.03;;;11.27;;
15679;SDS011;15488;48.114;11.532;2023-02-14T13:16:29;19.27;;;10.93;;
15679;SDS011;15488;48.114;11.532;2023-02-14T13:19:05;19.07;;;11.60;;
15679;SDS011;15488;48.114;11.532;2023-02-14T13:21:42;16.80;;;10.87;;
15679;SDS011;15488;48.114;11.532;2023-02-14T13:24:13;18.37;;;10.63;;
15679;SDS011;15488;48.114;11.532;2023-02-14T13:26:43;17.27;;;10.80;;
15679;SDS011;15488;48.114;11.532;2023-02-14T13:29:16;15.83;;;10.17;;
15679;SDS011;15488;48.114;11.532;2023-02-14T13:31:47;15.53;;;10.80;;
15679;SDS011;15488;48.114;11.532;2023-02-14T13:34:18;16.57;;;11.03;;
15679;SDS011;15488;48.114;11.532;2023-02-14T13:36:52;15.50;;;10.93;;
15679;SDS011;15488;48.114;11.532;2023-02-14T13:39:24;16.27;;;10.80;;
15679;SDS011;15488;48.114;11.532;2023-02-14T13:41:57;16.57;;;11.00;;
15679;SDS011;15488;48.114;11.532;2023-02-14T13:44:42;14.67;;;10.73;;
15679;SDS011;15488;48.114;11.532;2023-02-14T13:47:15;13.63;;;11.50;;
15679;SDS011;15488;48.114;11.532;2023-02-14T13:49:48;13.23;;;10.93;;
15679;SDS011;15488;48.114;11.532;2023-02-14T13:55:13;18.27;;;10.93;;
15679;SDS011;15488;48.114;11.532;2023-02-14T13:57:44;14.20;;;11.37;;
15679;SDS011;15488;48.114;11.532;2023-02-14T14:03:15;16.10;;;14.17;;
15679;SDS011;15488;48.114;11.532;2023-02-14T14:06:19;20.03;;;14.40;;
15679;SDS011;15488;48.114;11.532;2023-02-14T14:08:48;13.80;;;11.27;;
15679;SDS011;15488;48.114;11.532;2023-02-14T14:14:29;13.57;;;11.10;;
15679;SDS011;15488;48.114;11.532;2023-02-14T14:17:04;13.57;;;11.33;;
15679;SDS011;15488;48.114;11.532;2023-02-14T14:19:45;14.73;;;11.00;;
15679;SDS011;15488;48.114;11.532;2023-02-14T14:22:14;11.97;;;10.73;;
15679;SDS011;15488;48.114;11.532;2023-02-14T14:24:52;12.93;;;10.30;;
15679;SDS011;15488;48.114;11.532;2023-02-14T14:27:23;11.40;;;10.20;;
15679;SDS011;15488;48.114;11.532;2023-02-14T14:29:52;12.37;;;10.20;;
15679;SDS011;15488;48.114;11.532;2023-02-14T14:32:25;12.57;;;10.30;;
15679;SDS011;15488;48.114;11.532;2023-02-14T14:34:55;13.43;;;10.63;;
15679;SDS011;15488;48.114;11.532;2023-02-14T14:37:24;13.03;;;11.07;;
15679;SDS011;15488;48.114;11.532;2023-02-14T14:39:53;14.10;;;10.73;;
15679;SDS011;15488;48.114;11.532;2023-02-14T14:42:23;13.27;;;10.77;;
15679;SDS011;15488;48.114;11.532;2023-02-14T14:44:54;16.27;;;11.07;;
15679;SDS011;15488;48.114;11.532;2023-02-14T14:47:27;14.87;;;10.47;;
15679;SDS011;15488;48.114;11.532;2023-02-14T14:49:59;11.83;;;10.37;;
15679;SDS011;15488;48.114;11.532;2023-02-14T14:52:32;12.60;;;10.53;;
15679;SDS011;15488;48.114;11.532;2023-02-14T14:55:03;11.17;;;9.90;;
15679;SDS011;15488;48.114;11.532;2023-02-14T14:57:33;12.10;;;10.40;;
15679;SDS011;15488;48.114;11.532;2023-02-14T15:00:06;14.20;;;11.03;;
15679;SDS011;15488;48.114;11.532;2023-02-14T15:02:59;14.20;;;10.90;;
15679;SDS011;15488;48.114;11.532;2023-02-14T15:05:29;13.07;;;10.30;;
15679;SDS011;15488;48.114;11.532;2023-02-14T15:07:58;11.13;;;9.67;;
15679;SDS011;15488;48.114;11.532;2023-02-14T15:10:42;12.67;;;9.87;;
15679;SDS011;15488;48.114;11.532;2023-02-14T15:13:12;11.57;;;9.67;;
15679;SDS011;15488;48.114;11.532;2023-02-14T15:15:58;13.20;;;10.27;;
15679;SDS011;15488;48.114;11.532;2023-02-14T15:18:27;14.63;;;10.10;;
15679;SDS011;15488;48.114;11.532;2023-02-14T15:20:55;14.40;;;10.63;;